Time;durP1;ratioP1;P1;durP2;ratioP2;P2;SDS_P1;SDS_P2;PMS_P1;PMS_P2;Temp;Humidity;BMP_temperature;BMP_pressure;BME280_temperature;BME280_humidity;BME280_pressure;Samples;Min_cycle;Max_cycle;Signal;HPM_P1;HPM_P2
2021/03/09 00:02:02;;;;;;;46.33;24.88;;;;;;;3.31;70.22;101933.75;5103527;28;20030;-63
2021/03/09 00:04:27;;;;;;;49.00;23.92;;;;;;;3.27;70.95;101937.00;5102253;28;20031;-63
2021/03/09 00:06:53;;;;;;;47.42;25.85;;;;;;;3.20;72.66;101946.25;5097702;28;20437;-61
2021/03/09 00:09:18;;;;;;;50.58;25.50;;;;;;;3.14;72.78;101932.88;5097569;28;20038;-64
2021/03/09 00:11:43;;;;;;;47.53;26.77;;;;;;;3.10;71.57;101934.44;5102870;28;20592;-62
2021/03/09 00:14:09;;;;;;;51.55;26.60;;;;;;;3.06;73.93;101929.88;5085221;28;20043;-62
2021/03/09 00:16:34;;;;;;;55.58;27.40;;;;;;;3.01;74.02;101923.47;5100991;28;20027;-62
2021/03/09 00:18:59;;;;;;;49.63;25.98;;;;;;;3.00;74.77;101921.72;5091570;28;20028;-62
2021/03/09 00:21:25;;;;;;;53.30;28.27;;;;;;;2.98;74.72;101923.31;5094740;28;20031;-61
2021/03/09 00:23:50;;;;;;;51.90;29.20;;;;;;;3.03;74.18;101921.88;5103417;28;20454;-62
2021/03/09 00:26:15;;;;;;;51.80;28.73;;;;;;;2.93;74.77;101922.22;5101164;28;20032;-60
2021/03/09 00:28:41;;;;;;;52.95;30.10;;;;;;;2.83;76.12;101922.53;5102283;28;20031;-61
2021/03/09 00:31:06;;;;;;;54.45;30.90;;;;;;;2.78;76.60;101915.34;5092706;28;20028;-62
2021/03/09 00:33:31;;;;;;;56.33;31.52;;;;;;;2.77;76.88;101920.50;5103686;28;20028;-60
2021/03/09 00:35:57;;;;;;;53.30;28.80;;;;;;;2.77;77.48;101920.50;5102486;28;20027;-64
2021/03/09 00:38:22;;;;;;;53.28;29.63;;;;;;;2.75;77.95;101923.03;5074266;28;20044;-61
2021/03/09 00:40:47;;;;;;;51.95;28.25;;;;;;;2.77;77.77;101910.94;5101776;28;20024;-63
2021/03/09 00:43:13;;;;;;;59.85;30.25;;;;;;;2.75;77.94;101917.81;5104339;28;20020;-65
2021/03/09 00:45:39;;;;;;;57.97;31.45;;;;;;;2.69;78.84;101913.94;5092629;28;20028;-61
2021/03/09 00:48:04;;;;;;;55.85;30.33;;;;;;;2.68;78.03;101917.38;5092327;28;20383;-60
2021/03/09 00:50:29;;;;;;;56.80;33.67;;;;;;;2.65;78.29;101914.59;5084635;28;20036;-64
2021/03/09 00:52:55;;;;;;;54.17;29.05;;;;;;;2.63;79.34;101909.28;5102744;28;20047;-63
2021/03/09 00:55:20;;;;;;;57.00;30.80;;;;;;;2.61;79.46;101914.44;5092600;28;20027;-63
2021/03/09 00:57:56;;;;;;;56.75;30.58;;;;;;;2.60;78.45;101903.91;5101124;28;20036;-63
2021/03/09 01:00:22;;;;;;;60.10;31.83;;;;;;;2.58;79.56;101895.13;5103233;28;20032;-63
2021/03/09 01:02:47;;;;;;;57.58;31.30;;;;;;;2.58;79.15;101900.34;5101473;28;20026;-63
2021/03/09 01:05:13;;;;;;;57.38;33.05;;;;;;;2.58;79.55;101889.91;5104290;28;20046;-62
2021/03/09 01:07:38;;;;;;;58.63;31.92;;;;;;;2.55;79.91;101885.41;5092684;28;20012;-65
2021/03/09 01:10:04;;;;;;;60.38;31.83;;;;;;;2.54;80.62;101882.72;5103507;28;20032;-61
2021/03/09 01:12:29;;;;;;;56.25;28.70;;;;;;;2.59;79.85;101886.44;5101886;28;20027;-63
2021/03/09 01:14:55;;;;;;;56.70;30.73;;;;;;;2.57;79.71;101877.66;5092390;28;20024;-61
2021/03/09 01:17:20;;;;;;;60.78;32.20;;;;;;;2.55;80.43;101879.25;5092100;28;20016;-62
2021/03/09 01:19:45;;;;;;;59.05;31.95;;;;;;;2.54;80.75;101867.94;5092250;28;20122;-62
2021/03/09 01:22:11;;;;;;;60.30;32.58;;;;;;;2.55;80.49;101863.59;5092109;28;20383;-61
2021/03/09 01:24:36;;;;;;;56.45;31.10;;;;;;;2.56;80.29;101866.31;5103802;28;20028;-62
2021/03/09 01:27:01;;;;;;;57.92;30.95;;;;;;;2.59;79.98;101865.56;5101683;28;20026;-66
2021/03/09 01:29:27;;;;;;;55.15;28.67;;;;;;;2.60;80.24;101855.19;5102389;28;20099;-66
2021/03/09 01:31:52;;;;;;;48.65;24.85;;;;;;;2.74;79.02;101850.72;5102746;28;20028;-61
2021/03/09 01:34:18;;;;;;;56.67;29.42;;;;;;;2.64;79.92;101850.16;5092880;28;20573;-64
2021/03/09 01:36:43;;;;;;;59.05;30.92;;;;;;;2.65;79.99;101851.94;5077488;28;20390;-63
2021/03/09 01:39:11;;;;;;;57.28;30.40;;;;;;;2.64;80.09;101853.66;5104256;28;20016;-64
2021/03/09 01:41:37;;;;;;;59.15;30.85;;;;;;;2.64;80.11;101852.78;5095753;28;20475;-63
2021/03/09 01:44:03;;;;;;;61.33;31.92;;;;;;;2.63;80.47;101849.25;5106865;28;20074;-69
2021/03/09 01:46:30;;;;;;;57.60;30.75;;;;;;;2.61;80.25;101843.94;5105277;28;20030;-69
2021/03/09 01:48:56;;;;;;;59.08;31.40;;;;;;;2.61;80.61;101849.16;5095558;28;20462;-69
2021/03/09 01:51:21;;;;;;;62.13;32.88;;;;;;;2.61;80.83;101843.94;5105145;28;20073;-69
2021/03/09 01:53:48;;;;;;;58.15;31.25;;;;;;;2.63;80.30;101846.63;5106768;28;20488;-70
2021/03/09 01:56:13;;;;;;;59.17;31.52;;;;;;;2.60;80.61;101836.03;5095702;28;20032;-70
2021/03/09 01:58:42;;;;;;;60.13;31.95;;;;;;;2.63;80.71;101837.91;5099517;28;20047;-70
2021/03/09 02:01:08;;;;;;;61.47;32.47;;;;;;;2.58;80.58;101833.34;5095202;28;20103;-70
2021/03/09 02:03:34;;;;;;;62.75;31.80;;;;;;;2.56;81.74;101828.84;5106587;28;20146;-69
2021/03/09 02:05:59;;;;;;;63.00;33.72;;;;;;;2.55;81.96;101827.03;5105152;28;20058;-70
2021/03/09 02:08:26;;;;;;;59.70;32.78;;;;;;;2.50;82.00;101824.19;5105284;28;20020;-69
2021/03/09 02:10:51;;;;;;;61.58;32.28;;;;;;;2.49;82.03;101826.72;5106151;28;20015;-70
2021/03/09 02:14:00;;;;;;;61.40;32.70;;;;;;;2.56;80.92;101826.25;5095352;28;20044;-69
2021/03/09 02:16:30;;;;;;;57.72;29.98;;;;;;;2.54;81.21;101817.44;5010251;28;20048;-69
2021/03/09 02:19:21;;;;;;;56.50;30.20;;;;;;;2.46;81.69;101811.78;5012778;28;20038;-71
2021/03/09 02:22:31;;;;;;;63.45;32.35;;;;;;;2.45;81.25;101810.03;5008381;28;20030;-60
2021/03/09 02:25:29;;;;;;;60.75;32.88;;;;;;;2.46;81.46;101803.09;4970826;28;20517;-62
2021/03/09 02:28:24;;;;;;;58.15;30.63;;;;;;;2.49;81.07;101795.41;4954336;29;20238;-65
2021/03/09 02:30:52;;;;;;;59.33;31.65;;;;;;;2.40;81.89;101791.53;4954316;29;20501;-60
2021/03/09 02:33:20;;;;;;;58.13;32.25;;;;;;;2.40;82.15;101788.91;4954132;29;20133;-66
2021/03/09 02:35:50;;;;;;;55.78;29.50;;;;;;;2.46;81.28;101783.09;4954483;29;20046;-60
2021/03/09 02:38:21;;;;;;;60.92;30.92;;;;;;;2.41;82.02;101788.06;4954211;29;20039;-60
2021/03/09 02:40:48;;;;;;;58.92;31.13;;;;;;;2.38;82.31;101777.47;4954097;29;20147;-64
2021/03/09 02:43:17;;;;;;;61.40;32.22;;;;;;;2.38;82.51;101777.47;4953968;29;20070;-61
2021/03/09 02:45:47;;;;;;;58.47;32.58;;;;;;;2.36;82.32;101770.38;4953289;28;20043;-60
2021/03/09 02:48:13;;;;;;;65.95;33.25;;;;;;;2.35;83.36;101766.88;4953879;29;20039;-61
2021/03/09 02:50:40;;;;;;;56.72;28.40;;;;;;;2.41;82.42;101761.09;4953874;29;20027;-63
2021/03/09 02:53:11;;;;;;;64.82;31.20;;;;;;;2.42;82.48;101762.88;4954034;29;20057;-60
2021/03/09 02:55:38;;;;;;;65.78;34.53;;;;;;;2.39;82.79;101752.28;4953811;29;20442;-64
2021/03/09 02:58:08;;;;;;;64.25;32.53;;;;;;;2.35;83.05;101756.44;4953561;28;20051;-61
2021/03/09 03:00:34;;;;;;;67.10;32.47;;;;;;;2.31;83.58;101750.97;4974456;28;20420;-62
2021/03/09 03:03:02;;;;;;;67.75;36.30;;;;;;;2.32;84.01;101743.22;5020997;28;20030;-64
2021/03/09 03:05:28;;;;;;;64.07;35.08;;;;;;;2.25;84.25;101743.72;5085905;28;20042;-60
2021/03/09 03:07:55;;;;;;;68.75;34.63;;;;;;;2.39;83.58;101742.75;5102869;28;20032;-64
2021/03/09 03:10:21;;;;;;;69.38;34.80;;;;;;;2.31;83.80;101741.44;5098331;28;20028;-66
2021/03/09 03:12:48;;;;;;;67.20;33.90;;;;;;;2.33;84.15;101745.03;5094103;28;20028;-64
2021/03/09 03:15:15;;;;;;;67.57;35.40;;;;;;;2.27;84.60;101742.09;5105320;28;20093;-62
2021/03/09 03:17:42;;;;;;;64.78;32.30;;;;;;;2.28;84.12;101732.56;5103758;28;20024;-61
2021/03/09 03:20:12;;;;;;;72.28;40.20;;;;;;;2.27;84.61;101734.25;5093650;28;20024;-61
2021/03/09 03:22:40;;;;;;;72.47;36.30;;;;;;;2.27;84.59;101729.03;5104030;28;20024;-64
2021/03/09 03:25:07;;;;;;;62.10;30.73;;;;;;;2.33;83.70;101726.78;5104249;28;20080;-62
2021/03/09 03:27:34;;;;;;;75.13;37.35;;;;;;;2.25;84.77;101728.06;5093618;28;20043;-64
2021/03/09 03:30:00;;;;;;;55.88;27.08;;;;;;;2.26;84.21;101725.53;5102715;28;20474;-62
2021/03/09 03:32:25;;;;;;;76.55;39.50;;;;;;;2.26;84.76;101724.66;5087045;28;20039;-62
2021/03/09 03:34:51;;;;;;;73.40;36.00;;;;;;;2.33;84.67;101723.25;5101951;28;20512;-64
2021/03/09 03:37:17;;;;;;;76.28;37.88;;;;;;;2.25;85.34;101722.84;5093603;28;20031;-63
2021/03/09 03:39:42;;;;;;;70.63;32.65;;;;;;;2.28;84.67;101720.41;5093559;28;20028;-66
2021/03/09 03:42:08;;;;;;;71.18;35.05;;;;;;;2.28;84.73;101716.91;5103912;28;20028;-62
2021/03/09 03:44:34;;;;;;;73.35;37.42;;;;;;;2.26;85.17;101709.00;5103767;28;20107;-64
2021/03/09 03:46:59;;;;;;;75.88;38.10;;;;;;;2.21;85.15;101711.38;5093527;28;20027;-60
2021/03/09 03:49:25;;;;;;;73.55;34.97;;;;;;;2.24;85.22;101715.84;5093275;28;20424;-64
2021/03/09 03:51:59;;;;;;;50.60;23.33;;;;;;;2.40;84.08;101712.31;5101811;28;20023;-61
2021/03/09 03:54:44;;;;;;;68.22;33.53;;;;;;;2.28;85.05;101714.28;5098209;28;20034;-62
2021/03/09 03:57:31;;;;;;;57.53;25.90;;;;;;;2.20;85.01;101725.22;5101748;28;20052;-66
2021/03/09 04:00:03;;;;;;;69.88;34.88;;;;;;;2.20;85.69;101708.66;5098634;28;20089;-65
2021/03/09 04:02:29;;;;;;;76.63;35.93;;;;;;;2.13;86.47;101717.00;5104467;28;20035;-67
2021/03/09 04:04:55;;;;;;;69.57;31.48;;;;;;;2.12;86.23;101710.88;5093190;28;20262;-62
2021/03/09 04:07:25;;;;;;;75.43;34.92;;;;;;;2.13;86.93;101707.47;5097537;28;20107;-67
2021/03/09 04:09:54;;;;;;;70.28;33.28;;;;;;;2.11;86.44;101714.28;5097185;28;20482;-64
2021/03/09 04:12:23;;;;;;;70.35;33.90;;;;;;;2.13;87.15;101711.78;5093001;28;20471;-63
2021/03/09 04:14:50;;;;;;;74.72;36.60;;;;;;;2.13;86.91;101710.06;5104726;28;20035;-63
2021/03/09 04:17:18;;;;;;;75.55;34.67;;;;;;;2.12;87.20;101702.16;5101822;28;20386;-65
2021/03/09 04:19:44;;;;;;;70.80;33.50;;;;;;;2.10;87.39;101704.69;5092629;28;20024;-63
2021/03/09 04:22:10;;;;;;;61.25;30.05;;;;;;;2.15;86.67;101694.50;5103237;28;20090;-62
2021/03/09 04:24:35;;;;;;;87.85;37.65;;;;;;;2.11;87.56;101687.31;5103148;28;20477;-61
2021/03/09 04:27:01;;;;;;;74.82;34.15;;;;;;;2.13;87.24;101690.91;5092811;28;20031;-61
2021/03/09 04:29:27;;;;;;;77.20;33.25;;;;;;;2.20;87.05;101683.47;5101614;28;20032;-61
2021/03/09 04:31:52;;;;;;;77.53;34.50;;;;;;;2.17;86.80;101678.09;5104856;28;20088;-65
2021/03/09 04:34:18;;;;;;;74.80;35.97;;;;;;;2.22;86.15;101689.66;5101201;28;20433;-60
2021/03/09 04:36:44;;;;;;;63.95;28.58;;;;;;;2.24;86.62;101679.31;5074280;28;20040;-65
2021/03/09 04:39:11;;;;;;;79.97;36.88;;;;;;;2.20;87.13;101677.34;5102885;28;20455;-61
2021/03/09 04:41:36;;;;;;;73.20;34.90;;;;;;;2.21;87.26;101666.09;5102839;28;20023;-66
2021/03/09 04:44:02;;;;;;;66.15;29.73;;;;;;;2.30;86.38;101671.81;5092845;28;20024;-63
2021/03/09 04:46:28;;;;;;;68.38;31.45;;;;;;;2.28;86.29;101676.03;5101263;28;20356;-61
2021/03/09 04:48:54;;;;;;;76.28;37.03;;;;;;;2.26;86.66;101672.47;5104427;28;20027;-63
2021/03/09 04:51:19;;;;;;;74.55;33.05;;;;;;;2.21;86.98;101671.31;5101178;28;20347;-63
2021/03/09 04:53:45;;;;;;;75.63;33.25;;;;;;;2.21;87.00;101664.41;5103384;28;21022;-61
2021/03/09 04:56:11;;;;;;;79.13;37.85;;;;;;;2.21;87.05;101668.72;5102358;28;20039;-62
2021/03/09 04:58:37;;;;;;;80.20;34.97;;;;;;;2.19;87.30;101662.53;5092466;28;20428;-63
2021/03/09 05:01:03;;;;;;;84.00;36.92;;;;;;;2.20;87.43;101664.31;5101862;28;20111;-64
2021/03/09 05:03:30;;;;;;;69.32;29.95;;;;;;;2.26;86.80;101659.44;5104016;28;20008;-63
2021/03/09 05:05:55;;;;;;;89.70;37.75;;;;;;;2.22;87.88;101654.84;5092719;28;20344;-62
2021/03/09 05:08:21;;;;;;;81.43;37.08;;;;;;;2.24;87.62;101659.34;5100665;28;20034;-61
2021/03/09 05:10:47;;;;;;;85.95;41.17;;;;;;;2.22;87.58;101657.47;5095479;28;20016;-66
2021/03/09 05:13:16;;;;;;;88.68;40.22;;;;;;;2.29;87.38;101649.13;5107216;28;20028;-62
2021/03/09 05:15:42;;;;;;;80.55;36.63;;;;;;;2.22;87.80;101654.84;5087912;28;20569;-61
2021/03/09 05:18:08;;;;;;;82.55;35.40;;;;;;;2.24;87.72;101658.44;5096184;28;20489;-60
2021/03/09 05:20:34;;;;;;;103.50;43.40;;;;;;;2.18;89.15;101652.91;5106129;28;20485;-61
2021/03/09 05:22:59;;;;;;;88.53;39.08;;;;;;;2.24;88.50;101651.53;5107478;28;20031;-61
2021/03/09 05:25:24;;;;;;;99.78;40.90;;;;;;;2.18;88.81;101659.00;5104530;28;20012;-60
2021/03/09 05:27:50;;;;;;;101.05;41.67;;;;;;;2.19;88.91;101652.09;5096127;28;20357;-68
2021/03/09 05:30:18;;;;;;;88.93;36.75;;;;;;;2.28;88.33;101649.06;5106980;28;20038;-69
2021/03/09 05:32:44;;;;;;;101.72;44.30;;;;;;;2.22;89.02;101660.06;5105606;28;20019;-67
2021/03/09 05:35:11;;;;;;;87.25;38.92;;;;;;;2.23;88.57;101647.09;5096109;28;20048;-67
2021/03/09 05:37:36;;;;;;;105.88;45.35;;;;;;;2.22;88.99;101658.34;5105505;28;20023;-68
2021/03/09 05:40:03;;;;;;;110.50;49.15;;;;;;;2.20;89.68;101653.88;5106992;28;20077;-69
2021/03/09 05:42:29;;;;;;;112.85;46.92;;;;;;;2.21;89.85;101653.06;5095508;28;20028;-67
2021/03/09 05:44:54;;;;;;;107.85;44.55;;;;;;;2.22;89.51;101655.75;5095586;28;20024;-68
2021/03/09 05:47:22;;;;;;;80.20;34.70;;;;;;;2.26;88.75;101657.69;5096008;28;20024;-68
2021/03/09 05:49:48;;;;;;;112.47;49.25;;;;;;;2.22;89.73;101655.75;5106845;28;20550;-70
2021/03/09 05:52:16;;;;;;;116.63;47.58;;;;;;;2.23;90.22;101651.44;5105265;28;20027;-68
2021/03/09 05:54:41;;;;;;;114.53;48.15;;;;;;;2.23;90.50;101643.63;5095314;28;20031;-69
2021/03/09 05:57:07;;;;;;;113.53;44.22;;;;;;;2.24;90.06;101648.91;5105402;28;20024;-68
2021/03/09 05:59:33;;;;;;;115.00;48.33;;;;;;;2.26;90.08;101647.25;5106571;28;20089;-67
2021/03/09 06:01:58;;;;;;;115.82;46.25;;;;;;;2.27;90.71;101650.75;5095360;28;20028;-67
2021/03/09 06:04:24;;;;;;;114.80;49.63;;;;;;;2.26;91.07;101652.47;5103822;28;20024;-71
2021/03/09 06:06:49;;;;;;;116.25;44.72;;;;;;;2.29;90.42;101649.13;5095110;28;20455;-72
2021/03/09 06:09:33;;;;;;;100.97;41.33;;;;;;;2.31;90.59;101650.09;5106400;28;20028;-76
2021/03/09 06:12:14;;;;;;;110.30;45.08;;;;;;;2.32;90.56;101646.69;5089429;28;20020;-68
2021/03/09 06:15:02;;;;;;;120.00;48.03;;;;;;;2.33;90.80;101650.16;5092487;28;20356;-69
2021/03/09 06:17:32;;;;;;;115.95;49.30;;;;;;;2.37;90.27;101644.28;5091501;28;20374;-70
2021/03/09 06:19:57;;;;;;;121.35;47.60;;;;;;;2.36;90.75;101647.72;5092041;28;20031;-70
2021/03/09 06:22:43;;;;;;;102.93;39.65;;;;;;;2.46;89.95;101633.44;5091775;28;20028;-67
2021/03/09 06:25:11;;;;;;;100.03;41.92;;;;;;;2.41;90.52;101631.47;5093893;28;20020;-64
2021/03/09 06:27:37;;;;;;;108.03;42.03;;;;;;;2.44;90.42;101630.75;5092760;28;20463;-65
2021/03/09 06:30:06;;;;;;;114.25;47.35;;;;;;;2.47;90.40;101632.63;5094384;28;20031;-66
2021/03/09 06:32:43;;;;;;;106.78;47.40;;;;;;;2.46;90.58;101628.19;5091773;28;20023;-69
2021/03/09 06:35:26;;;;;;;121.35;48.45;;;;;;;2.42;91.34;101627.16;5092847;28;20012;-65
2021/03/09 06:37:52;;;;;;;127.45;50.63;;;;;;;2.41;91.15;101623.66;5093918;28;20020;-65
2021/03/09 06:40:17;;;;;;;128.02;47.92;;;;;;;2.42;91.59;101628.06;5094352;28;20024;-63
2021/03/09 06:42:43;;;;;;;130.13;51.97;;;;;;;2.46;91.01;101621.25;5091491;28;20038;-67
2021/03/09 06:45:08;;;;;;;125.05;50.22;;;;;;;2.50;91.05;101630.16;5092154;28;20020;-65
2021/03/09 06:47:48;;;;;;;115.25;46.30;;;;;;;2.50;91.12;101624.94;5074791;28;20067;-67
2021/03/09 06:50:34;;;;;;;126.70;50.92;;;;;;;2.51;90.75;101631.94;5091703;28;20121;-64
2021/03/09 06:53:02;;;;;;;132.88;52.58;;;;;;;2.49;91.46;101633.56;5091472;28;20036;-68
2021/03/09 06:55:33;;;;;;;123.90;44.92;;;;;;;2.55;91.34;101636.47;5094598;28;20081;-67
2021/03/09 06:58:03;;;;;;;124.43;48.13;;;;;;;2.50;91.90;101641.47;5072547;28;20089;-63
2021/03/09 07:00:29;;;;;;;138.88;49.35;;;;;;;2.51;91.91;101632.84;5072148;28;20430;-62
2021/03/09 07:02:54;;;;;;;125.95;46.90;;;;;;;2.57;92.67;101645.31;5075180;28;20036;-65
2021/03/09 07:05:19;;;;;;;151.07;53.08;;;;;;;2.55;93.34;101649.53;5072474;28;20378;-67
2021/03/09 07:07:44;;;;;;;126.20;47.53;;;;;;;2.58;92.94;101645.38;5073055;28;20066;-66
2021/03/09 07:10:13;;;;;;;147.00;48.50;;;;;;;2.58;93.59;101650.59;5073173;28;20082;-67
2021/03/09 07:12:40;;;;;;;160.20;54.70;;;;;;;2.62;94.42;101646.41;5071087;28;20031;-64
2021/03/09 07:15:08;;;;;;;187.90;56.67;;;;;;;2.63;95.41;101655.16;5072140;28;20070;-66
2021/03/09 07:17:36;;;;;;;180.32;57.55;;;;;;;2.64;95.83;101650.00;5072234;28;20387;-63
2021/03/09 07:20:03;;;;;;;180.57;63.40;;;;;;;2.66;96.00;101648.34;5073529;28;20029;-66
2021/03/09 07:22:29;;;;;;;154.48;49.35;;;;;;;2.70;96.16;101650.31;5071650;28;20467;-66
2021/03/09 07:24:58;;;;;;;146.90;49.17;;;;;;;2.74;96.02;101657.47;5071179;28;20055;-70
2021/03/09 07:27:44;;;;;;;151.45;56.22;;;;;;;2.78;95.10;101648.97;5072778;28;20036;-64
2021/03/09 07:30:13;;;;;;;150.23;54.90;;;;;;;2.77;95.78;101655.00;5071352;28;20155;-66
2021/03/09 07:32:41;;;;;;;147.95;50.58;;;;;;;2.77;96.28;101669.78;5072627;28;20070;-68
2021/03/09 07:35:08;;;;;;;156.82;51.45;;;;;;;2.76;98.66;101657.53;5071576;28;20048;-63
2021/03/09 07:37:38;;;;;;;176.77;58.67;;;;;;;2.80;99.80;101662.09;5068482;28;20044;-64
2021/03/09 07:40:07;;;;;;;158.68;54.33;;;;;;;2.82;99.74;101657.84;5076256;28;20016;-68
2021/03/09 07:42:32;;;;;;;132.15;48.88;;;;;;;2.85;99.83;101670.16;5072203;28;20082;-64
2021/03/09 07:44:58;;;;;;;158.18;52.88;;;;;;;2.89;100.00;101672.09;5069651;28;20399;-64
2021/03/09 07:47:24;;;;;;;159.15;53.80;;;;;;;2.90;100.00;101674.78;5072380;28;20024;-66
2021/03/09 07:49:50;;;;;;;159.32;50.78;;;;;;;2.94;100.00;101675.81;5072601;28;20447;-62
2021/03/09 07:52:19;;;;;;;155.68;53.55;;;;;;;2.97;100.00;101678.56;5070646;28;20024;-63
2021/03/09 07:55:03;;;;;;;145.48;51.40;;;;;;;3.03;100.00;101676.28;5072650;28;20078;-63
2021/03/09 07:57:33;;;;;;;133.35;52.10;;;;;;;3.08;99.68;101681.72;5074764;28;20048;-62
2021/03/09 08:00:01;;;;;;;143.10;49.55;;;;;;;3.04;100.00;101677.16;5092927;28;20085;-63
2021/03/09 08:02:51;;;;;;;141.57;49.08;;;;;;;3.05;100.00;101678.97;5094195;28;20052;-61
2021/03/09 08:05:19;;;;;;;147.95;51.30;;;;;;;3.09;100.00;101676.56;5092832;28;20092;-62
2021/03/09 08:07:47;;;;;;;154.57;52.80;;;;;;;3.15;100.00;101668.13;5087870;28;20051;-63
2021/03/09 08:10:33;;;;;;;154.75;52.42;;;;;;;3.21;100.00;101670.16;5099606;28;20083;-63
2021/03/09 08:13:07;;;;;;;141.18;49.70;;;;;;;3.27;100.00;101675.66;5093896;28;20088;-63
2021/03/09 08:15:36;;;;;;;149.20;53.40;;;;;;;3.39;100.00;101680.56;5090633;28;20036;-63
2021/03/09 08:18:16;;;;;;;104.45;32.97;;;;;;;3.49;100.00;101669.72;5094902;28;20039;-64
2021/03/09 08:20:59;;;;;;;127.63;48.40;;;;;;;3.54;100.00;101680.38;5092763;28;20024;-63
2021/03/09 08:23:36;;;;;;;119.25;48.08;;;;;;;3.57;100.00;101676.19;5091939;28;20026;-63
2021/03/09 08:26:06;;;;;;;108.35;43.85;;;;;;;3.62;100.00;101676.41;5091723;28;20757;-65
2021/03/09 08:28:32;;;;;;;129.43;47.67;;;;;;;3.67;100.00;101677.53;5092184;28;20107;-62
2021/03/09 08:31:09;;;;;;;126.00;46.45;;;;;;;3.77;100.00;101677.13;5091698;28;20173;-62
2021/03/09 08:33:39;;;;;;;120.50;46.38;;;;;;;3.89;100.00;101675.84;5088520;28;20036;-62
2021/03/09 08:36:19;;;;;;;107.35;46.83;;;;;;;3.90;100.00;101680.28;5094557;28;20028;-63
2021/03/09 08:39:03;;;;;;;111.80;43.15;;;;;;;3.97;100.00;101687.56;5091001;28;20467;-63
2021/03/09 08:41:38;;;;;;;110.60;43.33;;;;;;;4.03;100.00;101684.34;5091444;28;20047;-64
2021/03/09 08:44:12;;;;;;;104.80;41.30;;;;;;;4.09;100.00;101687.22;5092956;28;20042;-63
2021/03/09 08:46:53;;;;;;;110.05;43.15;;;;;;;4.14;100.00;101683.97;5092113;28;20063;-64
2021/03/09 08:49:34;;;;;;;109.90;44.15;;;;;;;4.21;100.00;101684.25;5096251;28;20111;-62
2021/03/09 08:52:00;;;;;;;103.05;42.85;;;;;;;4.27;100.00;101679.31;5094727;28;20043;-63
2021/03/09 08:54:32;;;;;;;104.05;42.45;;;;;;;4.34;100.00;101684.84;5095660;28;20031;-65
2021/03/09 08:57:00;;;;;;;93.55;40.97;;;;;;;4.43;100.00;101688.72;5099295;28;20027;-63
2021/03/09 08:59:28;;;;;;;96.35;43.42;;;;;;;4.38;100.00;101678.00;5105685;28;20043;-63
2021/03/09 09:02:04;;;;;;;81.30;36.53;;;;;;;4.29;100.00;101677.63;5096025;28;20031;-63
2021/03/09 09:04:29;;;;;;;93.20;39.92;;;;;;;4.32;100.00;101675.13;5107371;28;20039;-66
2021/03/09 09:06:54;;;;;;;91.10;35.78;;;;;;;4.36;100.00;101675.34;5105899;28;20023;-65
2021/03/09 09:09:36;;;;;;;91.93;39.30;;;;;;;4.53;100.00;101669.94;5096070;28;20498;-65
2021/03/09 09:12:27;;;;;;;86.05;40.22;;;;;;;4.68;99.11;101667.06;5107229;28;20042;-65
2021/03/09 09:15:02;;;;;;;96.55;37.33;;;;;;;4.92;100.00;101666.28;5104351;28;20040;-66
2021/03/09 09:17:28;;;;;;;91.43;39.20;;;;;;;5.01;100.00;101664.91;5105855;28;20031;-66
2021/03/09 09:19:58;;;;;;;91.82;40.75;;;;;;;5.05;100.00;101660.69;5092300;28;20024;-64
2021/03/09 09:22:27;;;;;;;81.20;37.40;;;;;;;4.99;98.88;101660.44;5093401;28;20381;-64
2021/03/09 09:25:02;;;;;;;86.13;37.95;;;;;;;4.91;99.60;101668.00;5095071;28;20089;-62
2021/03/09 09:27:35;;;;;;;77.13;36.25;;;;;;;4.77;98.78;101663.94;5095314;28;20032;-66
2021/03/09 09:30:01;;;;;;;;;;;;;;;4.69;99.95;101658.38;5094707;28;20160;-63
2021/03/09 09:32:26;;;;;;;86.65;39.15;;;;;;;4.71;100.00;101664.56;5096436;28;19912;-62
2021/03/09 09:34:59;;;;;;;72.60;31.83;;;;;;;4.73;100.00;101662.88;5079006;28;20031;-62
2021/03/09 09:37:24;;;;;;;81.88;34.40;;;;;;;4.82;100.00;101668.53;5094903;28;20077;-63
2021/03/09 09:39:49;;;;;;;78.15;34.35;;;;;;;4.84;99.82;101669.47;5095602;28;20032;-63
2021/03/09 09:42:17;;;;;;;82.30;36.63;;;;;;;4.79;100.00;101663.16;5094375;28;20111;-62
2021/03/09 09:44:43;;;;;;;87.05;36.22;;;;;;;4.74;100.00;101669.94;5078316;28;20122;-63
2021/03/09 09:47:10;;;;;;;83.28;38.83;;;;;;;4.90;99.66;101663.59;5094114;28;20399;-63
2021/03/09 09:49:38;;;;;;;77.68;33.40;;;;;;;4.99;100.00;101663.94;5096214;28;20027;-64
2021/03/09 09:52:13;;;;;;;78.72;36.45;;;;;;;5.11;100.00;101660.03;5094405;28;20110;-63
2021/03/09 09:54:40;;;;;;;71.43;32.88;;;;;;;5.32;98.78;101660.88;5092318;28;20028;-63
2021/03/09 09:57:11;;;;;;;68.22;32.15;;;;;;;5.40;99.14;101659.47;5094724;28;20060;-62
2021/03/09 09:59:37;;;;;;;56.08;25.58;;;;;;;5.45;97.51;101661.38;5091746;28;20055;-63
2021/03/09 10:02:22;;;;;;;49.67;22.58;;;;;;;5.41;96.80;101657.72;5093507;28;20116;-63
2021/03/09 10:04:48;;;;;;;57.47;26.30;;;;;;;5.48;96.96;101667.63;5095537;28;20202;-64
2021/03/09 10:07:20;;;;;;;54.67;26.95;;;;;;;5.41;95.94;101666.47;5095087;28;20103;-66
2021/03/09 10:10:05;;;;;;;52.10;24.60;;;;;;;5.45;93.83;101669.25;5093543;28;20116;-64
2021/03/09 10:12:36;;;;;;;55.42;28.65;;;;;;;5.33;98.14;101653.91;5093310;28;20033;-64
2021/03/09 10:15:04;;;;;;;50.15;23.08;;;;;;;5.33;97.95;101667.00;5074603;28;20028;-67
2021/03/09 10:17:29;;;;;;;54.33;26.65;;;;;;;5.44;97.50;101665.69;5095724;28;20040;-62
2021/03/09 10:19:55;;;;;;;51.25;23.33;;;;;;;5.62;96.73;101664.63;5093921;28;20027;-63
2021/03/09 10:22:24;;;;;;;45.78;22.23;;;;;;;5.69;95.01;101666.63;5093659;28;20024;-64
2021/03/09 10:24:49;;;;;;;40.08;19.35;;;;;;;5.72;91.84;101666.75;5095157;28;20040;-63
2021/03/09 10:27:20;;;;;;;33.10;13.00;;;;;;;5.79;91.88;101663.50;5075917;28;20032;-63
2021/03/09 10:29:46;;;;;;;28.83;10.70;;;;;;;5.81;88.66;101672.34;5092836;28;20062;-65
2021/03/09 10:32:18;;;;;;;31.05;13.98;;;;;;;5.76;90.16;101669.53;5092903;28;20055;-63
2021/03/09 10:34:49;;;;;;;24.40;8.18;;;;;;;5.76;87.79;101668.66;5096634;28;20390;-64
2021/03/09 10:37:18;;;;;;;20.80;5.95;;;;;;;5.76;88.07;101671.28;5092581;28;20030;-63
2021/03/09 10:39:57;;;;;;;19.38;5.85;;;;;;;5.89;86.65;101656.88;5093278;28;20039;-62
2021/03/09 10:42:26;;;;;;;18.58;5.03;;;;;;;5.81;84.88;101664.47;5094269;28;20050;-64
2021/03/09 10:44:53;;;;;;;23.33;8.52;;;;;;;5.85;86.73;101663.72;5092915;28;20036;-67
2021/03/09 10:47:18;;;;;;;29.35;11.65;;;;;;;6.14;87.86;101658.69;5094613;28;20077;-64
2021/03/09 10:49:44;;;;;;;26.13;8.82;;;;;;;6.55;86.94;101653.06;5093545;28;20039;-63
2021/03/09 10:52:09;;;;;;;21.35;6.40;;;;;;;7.00;84.37;101651.91;5095597;28;20023;-64
2021/03/09 10:54:39;;;;;;;22.05;6.55;;;;;;;7.85;81.03;101650.97;5092717;28;20025;-64
2021/03/09 10:57:09;;;;;;;17.58;4.75;;;;;;;9.18;75.25;101642.94;5091110;28;20016;-65
2021/03/09 10:59:35;;;;;;;19.35;5.78;;;;;;;10.72;72.35;101640.69;5093056;28;20036;-64
2021/03/09 11:02:00;;;;;;;16.88;4.80;;;;;;;11.33;64.09;101640.72;5092870;28;20039;-63
2021/03/09 11:04:26;;;;;;;15.45;4.38;;;;;;;11.83;61.90;101629.00;5093407;28;20094;-63
2021/03/09 11:06:52;;;;;;;11.32;3.25;;;;;;;11.66;60.88;101628.81;5093205;28;20016;-63
2021/03/09 11:09:17;;;;;;;11.40;3.10;;;;;;;11.82;63.28;101621.94;5094205;28;20023;-63
2021/03/09 11:11:43;;;;;;;12.55;3.40;;;;;;;12.36;59.76;101624.28;5092974;28;20035;-63
2021/03/09 11:14:09;;;;;;;9.63;3.00;;;;;;;12.10;62.53;101624.03;5092803;28;20584;-63
2021/03/09 11:16:34;;;;;;;8.88;2.95;;;;;;;11.75;61.00;101633.34;5091390;28;20039;-63
2021/03/09 11:19:01;;;;;;;9.48;3.20;;;;;;;10.43;63.62;101634.91;5099002;28;20031;-63
2021/03/09 11:21:27;;;;;;;10.13;2.85;;;;;;;9.50;65.40;101640.13;5091795;28;20031;-63
2021/03/09 11:23:53;;;;;;;9.85;2.80;;;;;;;8.86;66.93;101651.00;5096191;28;20382;-64